sensor_id;sensor_type;location;lat;lon;timestamp;P1;durP1;ratioP1;P2;durP2;ratioP2
69008;SDS011;56065;52.472;13.380;2023-04-15T00:01:17;27.40;;;15.17;;
69008;SDS011;56065;52.472;13.380;2023-04-15T00:03:43;25.03;;;14.60;;
69008;SDS011;56065;52.472;13.380;2023-04-15T00:06:09;27.52;;;14.50;;
69008;SDS011;56065;52.472;13.380;2023-04-15T00:08:34;28.00;;;15.00;;
69008;SDS011;56065;52.472;13.380;2023-04-15T00:11:00;38.73;;;17.43;;
69008;SDS011;56065;52.472;13.380;2023-04-15T00:13:29;25.05;;;13.77;;
69008;SDS011;56065;52.472;13.380;2023-04-15T00:15:54;28.53;;;16.20;;
69008;SDS011;56065;52.472;13.380;2023-04-15T00:18:20;27.20;;;14.30;;
69008;SDS011;56065;52.472;13.380;2023-04-15T00:20:45;25.92;;;14.57;;
69008;SDS011;56065;52.472;13.380;2023-04-15T00:23:11;27.43;;;15.90;;
69008;SDS011;56065;52.472;13.380;2023-04-15T00:25:37;26.92;;;14.82;;
69008;SDS011;56065;52.472;13.380;2023-04-15T00:28:03;28.50;;;15.40;;
69008;SDS011;56065;52.472;13.380;2023-04-15T00:30:28;24.85;;;14.27;;
69008;SDS011;56065;52.472;13.380;2023-04-15T00:32:53;28.03;;;14.47;;
69008;SDS011;56065;52.472;13.380;2023-04-15T00:35:19;32.13;;;16.30;;
69008;SDS011;56065;52.472;13.380;2023-04-15T00:37:45;31.83;;;16.17;;
69008;SDS011;56065;52.472;13.380;2023-04-15T00:40:11;31.00;;;16.53;;
69008;SDS011;56065;52.472;13.380;2023-04-15T00:42:37;28.10;;;15.98;;
69008;SDS011;56065;52.472;13.380;2023-04-15T00:45:03;31.10;;;16.50;;
69008;SDS011;56065;52.472;13.380;2023-04-15T00:47:29;26.27;;;14.68;;
69008;SDS011;56065;52.472;13.380;2023-04-15T00:49:56;28.23;;;15.15;;
69008;SDS011;56065;52.472;13.380;2023-04-15T00:52:22;29.00;;;15.98;;
69008;SDS011;56065;52.472;13.380;2023-04-15T00:54:47;31.50;;;15.60;;
69008;SDS011;56065;52.472;13.380;2023-04-15T00:57:12;34.70;;;17.03;;
69008;SDS011;56065;52.472;13.380;2023-04-15T00:59:38;31.73;;;16.40;;
69008;SDS011;56065;52.472;13.380;2023-04-15T01:02:03;30.93;;;16.83;;
69008;SDS011;56065;52.472;13.380;2023-04-15T01:04:29;33.45;;;17.90;;
69008;SDS011;56065;52.472;13.380;2023-04-15T01:06:55;33.50;;;16.60;;
69008;SDS011;56065;52.472;13.380;2023-04-15T01:09:21;34.37;;;17.30;;
69008;SDS011;56065;52.472;13.380;2023-04-15T01:11:46;31.13;;;17.10;;
69008;SDS011;56065;52.472;13.380;2023-04-15T01:14:12;32.90;;;16.45;;
69008;SDS011;56065;52.472;13.380;2023-04-15T01:16:37;31.90;;;16.80;;
69008;SDS011;56065;52.472;13.380;2023-04-15T01:19:05;36.47;;;17.80;;
69008;SDS011;56065;52.472;13.380;2023-04-15T01:21:35;34.50;;;16.83;;
69008;SDS011;56065;52.472;13.380;2023-04-15T01:24:01;35.47;;;17.13;;
69008;SDS011;56065;52.472;13.380;2023-04-15T01:26:32;33.67;;;17.40;;
69008;SDS011;56065;52.472;13.380;2023-04-15T01:28:58;34.93;;;17.53;;
69008;SDS011;56065;52.472;13.380;2023-04-15T01:31:23;36.42;;;17.80;;
69008;SDS011;56065;52.472;13.380;2023-04-15T01:33:48;32.73;;;16.90;;
69008;SDS011;56065;52.472;13.380;2023-04-15T01:36:14;37.67;;;18.00;;
69008;SDS011;56065;52.472;13.380;2023-04-15T01:38:39;33.97;;;17.50;;
69008;SDS011;56065;52.472;13.380;2023-04-15T01:41:05;36.17;;;18.03;;
69008;SDS011;56065;52.472;13.380;2023-04-15T01:43:32;34.78;;;17.50;;
69008;SDS011;56065;52.472;13.380;2023-04-15T01:45:58;39.42;;;18.73;;
69008;SDS011;56065;52.472;13.380;2023-04-15T01:48:23;39.57;;;19.77;;
69008;SDS011;56065;52.472;13.380;2023-04-15T01:50:49;39.53;;;17.77;;
69008;SDS011;56065;52.472;13.380;2023-04-15T01:53:14;34.33;;;17.02;;
69008;SDS011;56065;52.472;13.380;2023-04-15T01:55:40;35.90;;;18.03;;
69008;SDS011;56065;52.472;13.380;2023-04-15T01:58:06;38.17;;;17.77;;
69008;SDS011;56065;52.472;13.380;2023-04-15T02:00:32;38.50;;;17.30;;
69008;SDS011;56065;52.472;13.380;2023-04-15T02:02:57;35.50;;;17.63;;
69008;SDS011;56065;52.472;13.380;2023-04-15T02:05:23;37.93;;;18.47;;
69008;SDS011;56065;52.472;13.380;2023-04-15T02:07:49;36.67;;;17.55;;
69008;SDS011;56065;52.472;13.380;2023-04-15T02:10:14;40.27;;;19.40;;
69008;SDS011;56065;52.472;13.380;2023-04-15T02:12:40;36.47;;;17.63;;
69008;SDS011;56065;52.472;13.380;2023-04-15T02:15:06;38.07;;;19.23;;
69008;SDS011;56065;52.472;13.380;2023-04-15T02:17:35;39.92;;;19.20;;
69008;SDS011;56065;52.472;13.380;2023-04-15T02:20:02;38.28;;;18.88;;
69008;SDS011;56065;52.472;13.380;2023-04-15T02:22:30;39.28;;;19.10;;
69008;SDS011;56065;52.472;13.380;2023-04-15T02:24:55;34.43;;;17.87;;
69008;SDS011;56065;52.472;13.380;2023-04-15T02:27:20;37.60;;;17.90;;
69008;SDS011;56065;52.472;13.380;2023-04-15T02:29:46;36.60;;;17.73;;
69008;SDS011;56065;52.472;13.380;2023-04-15T02:32:12;38.27;;;18.20;;
69008;SDS011;56065;52.472;13.380;2023-04-15T02:34:38;36.55;;;17.13;;
69008;SDS011;56065;52.472;13.380;2023-04-15T02:37:05;41.40;;;18.50;;
69008;SDS011;56065;52.472;13.380;2023-04-15T02:39:31;36.42;;;17.38;;
69008;SDS011;56065;52.472;13.380;2023-04-15T02:41:57;42.30;;;19.85;;
69008;SDS011;56065;52.472;13.380;2023-04-15T02:44:24;38.47;;;18.30;;
69008;SDS011;56065;52.472;13.380;2023-04-15T02:46:49;39.75;;;17.77;;
69008;SDS011;56065;52.472;13.380;2023-04-15T02:49:16;36.65;;;18.30;;
69008;SDS011;56065;52.472;13.380;2023-04-15T02:51:42;37.80;;;18.03;;
69008;SDS011;56065;52.472;13.380;2023-04-15T02:54:07;34.40;;;17.42;;
69008;SDS011;56065;52.472;13.380;2023-04-15T02:56:33;37.57;;;17.33;;
69008;SDS011;56065;52.472;13.380;2023-04-15T02:58:58;36.73;;;17.97;;
69008;SDS011;56065;52.472;13.380;2023-04-15T03:01:23;34.17;;;17.37;;
69008;SDS011;56065;52.472;13.380;2023-04-15T03:03:50;35.47;;;17.10;;
69008;SDS011;56065;52.472;13.380;2023-04-15T03:06:15;36.60;;;17.27;;
69008;SDS011;56065;52.472;13.380;2023-04-15T03:08:41;37.13;;;17.30;;
69008;SDS011;56065;52.472;13.380;2023-04-15T03:11:06;32.88;;;16.15;;
69008;SDS011;56065;52.472;13.380;2023-04-15T03:13:32;34.73;;;16.50;;
69008;SDS011;56065;52.472;13.380;2023-04-15T03:15:57;37.75;;;17.98;;
69008;SDS011;56065;52.472;13.380;2023-04-15T03:18:23;164.10;;;70.73;;
69008;SDS011;56065;52.472;13.380;2023-04-15T03:20:48;48.67;;;23.07;;
69008;SDS011;56065;52.472;13.380;2023-04-15T03:23:14;41.60;;;19.13;;
69008;SDS011;56065;52.472;13.380;2023-04-15T03:25:39;35.47;;;17.77;;
69008;SDS011;56065;52.472;13.380;2023-04-15T03:28:04;35.03;;;16.90;;
69008;SDS011;56065;52.472;13.380;2023-04-15T03:30:30;34.07;;;17.47;;
69008;SDS011;56065;52.472;13.380;2023-04-15T03:32:55;36.40;;;18.23;;
69008;SDS011;56065;52.472;13.380;2023-04-15T03:35:21;37.07;;;17.57;;
69008;SDS011;56065;52.472;13.380;2023-04-15T03:37:46;33.55;;;17.08;;
69008;SDS011;56065;52.472;13.380;2023-04-15T03:40:13;35.60;;;16.87;;
69008;SDS011;56065;52.472;13.380;2023-04-15T03:42:38;33.75;;;16.23;;
69008;SDS011;56065;52.472;13.380;2023-04-15T03:45:04;31.83;;;16.87;;
69008;SDS011;56065;52.472;13.380;2023-04-15T03:47:31;33.65;;;16.70;;
69008;SDS011;56065;52.472;13.380;2023-04-15T03:49:56;33.60;;;16.50;;
69008;SDS011;56065;52.472;13.380;2023-04-15T03:52:22;35.50;;;17.55;;
69008;SDS011;56065;52.472;13.380;2023-04-15T03:54:47;33.20;;;16.73;;
69008;SDS011;56065;52.472;13.380;2023-04-15T03:57:12;30.13;;;15.07;;
69008;SDS011;56065;52.472;13.380;2023-04-15T03:59:38;33.50;;;15.43;;
69008;SDS011;56065;52.472;13.380;2023-04-15T04:02:03;34.13;;;17.07;;
69008;SDS011;56065;52.472;13.380;2023-04-15T04:04:28;29.73;;;15.70;;
69008;SDS011;56065;52.472;13.380;2023-04-15T04:06:54;33.83;;;16.13;;
69008;SDS011;56065;52.472;13.380;2023-04-15T04:09:19;31.57;;;15.00;;
69008;SDS011;56065;52.472;13.380;2023-04-15T04:11:44;34.65;;;16.42;;
69008;SDS011;56065;52.472;13.380;2023-04-15T04:14:10;31.27;;;15.33;;
69008;SDS011;56065;52.472;13.380;2023-04-15T04:16:35;33.00;;;15.67;;
69008;SDS011;56065;52.472;13.380;2023-04-15T04:19:01;33.80;;;16.00;;
69008;SDS011;56065;52.472;13.380;2023-04-15T04:21:26;29.47;;;15.57;;
69008;SDS011;56065;52.472;13.380;2023-04-15T04:23:52;32.08;;;14.98;;
69008;SDS011;56065;52.472;13.380;2023-04-15T04:26:17;29.00;;;15.03;;
69008;SDS011;56065;52.472;13.380;2023-04-15T04:28:44;30.20;;;15.45;;
69008;SDS011;56065;52.472;13.380;2023-04-15T04:31:10;31.23;;;16.10;;
69008;SDS011;56065;52.472;13.380;2023-04-15T04:33:35;28.63;;;15.17;;
69008;SDS011;56065;52.472;13.380;2023-04-15T04:36:01;29.15;;;14.55;;
69008;SDS011;56065;52.472;13.380;2023-04-15T04:38:26;27.43;;;13.50;;
69008;SDS011;56065;52.472;13.380;2023-04-15T04:40:51;27.17;;;14.53;;
69008;SDS011;56065;52.472;13.380;2023-04-15T04:43:17;28.03;;;15.23;;
69008;SDS011;56065;52.472;13.380;2023-04-15T04:45:42;28.53;;;14.60;;
69008;SDS011;56065;52.472;13.380;2023-04-15T04:48:08;26.07;;;13.80;;
69008;SDS011;56065;52.472;13.380;2023-04-15T04:50:34;28.75;;;14.63;;
69008;SDS011;56065;52.472;13.380;2023-04-15T04:53:00;28.50;;;14.55;;
69008;SDS011;56065;52.472;13.380;2023-04-15T04:55:26;29.37;;;14.80;;
69008;SDS011;56065;52.472;13.380;2023-04-15T04:57:51;29.38;;;14.27;;
69008;SDS011;56065;52.472;13.380;2023-04-15T05:00:17;27.53;;;14.17;;
69008;SDS011;56065;52.472;13.380;2023-04-15T05:02:43;29.65;;;14.15;;
69008;SDS011;56065;52.472;13.380;2023-04-15T05:05:09;27.40;;;14.73;;
69008;SDS011;56065;52.472;13.380;2023-04-15T05:07:35;26.75;;;14.27;;
69008;SDS011;56065;52.472;13.380;2023-04-15T05:10:01;24.15;;;13.15;;
69008;SDS011;56065;52.472;13.380;2023-04-15T05:12:27;25.70;;;13.77;;
69008;SDS011;56065;52.472;13.380;2023-04-15T05:14:52;26.70;;;13.68;;
69008;SDS011;56065;52.472;13.380;2023-04-15T05:17:18;27.93;;;13.30;;
69008;SDS011;56065;52.472;13.380;2023-04-15T05:19:43;25.73;;;13.73;;
69008;SDS011;56065;52.472;13.380;2023-04-15T05:22:08;25.83;;;13.67;;
69008;SDS011;56065;52.472;13.380;2023-04-15T05:24:34;24.93;;;12.83;;
69008;SDS011;56065;52.472;13.380;2023-04-15T05:26:59;24.20;;;12.43;;
69008;SDS011;56065;52.472;13.380;2023-04-15T05:29:26;22.07;;;12.87;;
69008;SDS011;56065;52.472;13.380;2023-04-15T05:31:51;21.93;;;12.07;;
69008;SDS011;56065;52.472;13.380;2023-04-15T05:34:16;24.17;;;13.50;;
69008;SDS011;56065;52.472;13.380;2023-04-15T05:36:42;25.27;;;12.63;;
69008;SDS011;56065;52.472;13.380;2023-04-15T05:39:07;23.97;;;13.00;;
69008;SDS011;56065;52.472;13.380;2023-04-15T05:41:33;22.57;;;12.33;;
69008;SDS011;56065;52.472;13.380;2023-04-15T05:43:58;21.50;;;11.88;;
69008;SDS011;56065;52.472;13.380;2023-04-15T05:46:23;21.47;;;12.03;;
69008;SDS011;56065;52.472;13.380;2023-04-15T05:48:49;21.00;;;11.57;;
69008;SDS011;56065;52.472;13.380;2023-04-15T05:51:14;23.10;;;11.50;;
69008;SDS011;56065;52.472;13.380;2023-04-15T05:53:40;19.67;;;11.13;;
69008;SDS011;56065;52.472;13.380;2023-04-15T05:56:06;23.02;;;11.18;;
69008;SDS011;56065;52.472;13.380;2023-04-15T05:58:31;21.58;;;10.65;;
69008;SDS011;56065;52.472;13.380;2023-04-15T06:00:57;17.27;;;10.17;;
69008;SDS011;56065;52.472;13.380;2023-04-15T06:03:22;19.97;;;9.87;;
69008;SDS011;56065;52.472;13.380;2023-04-15T06:05:47;20.57;;;10.97;;
69008;SDS011;56065;52.472;13.380;2023-04-15T06:08:13;18.27;;;9.93;;
69008;SDS011;56065;52.472;13.380;2023-04-15T06:10:38;17.88;;;10.57;;
69008;SDS011;56065;52.472;13.380;2023-04-15T06:13:04;20.70;;;10.23;;
69008;SDS011;56065;52.472;13.380;2023-04-15T06:15:30;20.40;;;10.13;;
69008;SDS011;56065;52.472;13.380;2023-04-15T06:17:55;20.23;;;10.40;;
69008;SDS011;56065;52.472;13.380;2023-04-15T06:20:21;17.83;;;10.35;;
69008;SDS011;56065;52.472;13.380;2023-04-15T06:22:46;17.13;;;10.20;;
69008;SDS011;56065;52.472;13.380;2023-04-15T06:25:12;18.57;;;10.60;;
69008;SDS011;56065;52.472;13.380;2023-04-15T06:27:38;20.45;;;9.77;;
69008;SDS011;56065;52.472;13.380;2023-04-15T06:30:03;19.67;;;9.97;;
69008;SDS011;56065;52.472;13.380;2023-04-15T06:32:29;18.95;;;10.98;;
69008;SDS011;56065;52.472;13.380;2023-04-15T06:34:55;16.20;;;9.18;;
69008;SDS011;56065;52.472;13.380;2023-04-15T06:37:21;17.70;;;9.63;;
69008;SDS011;56065;52.472;13.380;2023-04-15T06:39:46;16.50;;;9.53;;
69008;SDS011;56065;52.472;13.380;2023-04-15T06:42:11;19.00;;;9.80;;
69008;SDS011;56065;52.472;13.380;2023-04-15T06:44:37;15.18;;;9.13;;
69008;SDS011;56065;52.472;13.380;2023-04-15T06:47:03;15.47;;;9.87;;
69008;SDS011;56065;52.472;13.380;2023-04-15T06:49:28;18.70;;;9.87;;
69008;SDS011;56065;52.472;13.380;2023-04-15T06:51:54;16.02;;;9.70;;
69008;SDS011;56065;52.472;13.380;2023-04-15T06:54:19;16.80;;;10.20;;
69008;SDS011;56065;52.472;13.380;2023-04-15T06:56:44;16.33;;;10.67;;
69008;SDS011;56065;52.472;13.380;2023-04-15T06:59:10;14.03;;;8.70;;
69008;SDS011;56065;52.472;13.380;2023-04-15T07:01:35;16.27;;;9.03;;
69008;SDS011;56065;52.472;13.380;2023-04-15T07:04:00;18.57;;;9.07;;
69008;SDS011;56065;52.472;13.380;2023-04-15T07:06:26;14.75;;;8.68;;
69008;SDS011;56065;52.472;13.380;2023-04-15T07:08:52;16.40;;;8.73;;
69008;SDS011;56065;52.472;13.380;2023-04-15T07:11:18;15.23;;;8.65;;
69008;SDS011;56065;52.472;13.380;2023-04-15T07:13:44;14.40;;;8.27;;
69008;SDS011;56065;52.472;13.380;2023-04-15T07:16:10;15.95;;;8.75;;
69008;SDS011;56065;52.472;13.380;2023-04-15T07:18:35;14.13;;;8.43;;
69008;SDS011;56065;52.472;13.380;2023-04-15T07:21:01;16.70;;;8.87;;
69008;SDS011;56065;52.472;13.380;2023-04-15T07:23:26;14.07;;;8.37;;
69008;SDS011;56065;52.472;13.380;2023-04-15T07:25:52;16.67;;;8.20;;
69008;SDS011;56065;52.472;13.380;2023-04-15T07:28:17;14.80;;;8.23;;
69008;SDS011;56065;52.472;13.380;2023-04-15T07:30:42;15.53;;;8.90;;
69008;SDS011;56065;52.472;13.380;2023-04-15T07:33:08;14.37;;;7.33;;
69008;SDS011;56065;52.472;13.380;2023-04-15T07:35:33;14.32;;;8.30;;
69008;SDS011;56065;52.472;13.380;2023-04-15T07:37:59;15.30;;;7.93;;
69008;SDS011;56065;52.472;13.380;2023-04-15T07:40:24;13.23;;;8.10;;
69008;SDS011;56065;52.472;13.380;2023-04-15T07:42:50;14.73;;;9.18;;
69008;SDS011;56065;52.472;13.380;2023-04-15T07:45:16;14.83;;;8.90;;
69008;SDS011;56065;52.472;13.380;2023-04-15T07:47:41;16.50;;;9.17;;
69008;SDS011;56065;52.472;13.380;2023-04-15T07:50:08;16.80;;;8.90;;
69008;SDS011;56065;52.472;13.380;2023-04-15T07:52:35;15.80;;;8.85;;
69008;SDS011;56065;52.472;13.380;2023-04-15T07:55:04;14.48;;;8.60;;
69008;SDS011;56065;52.472;13.380;2023-04-15T07:57:32;15.03;;;9.07;;
69008;SDS011;56065;52.472;13.380;2023-04-15T07:59:58;15.50;;;9.27;;
69008;SDS011;56065;52.472;13.380;2023-04-15T08:02:24;16.08;;;9.55;;
69008;SDS011;56065;52.472;13.380;2023-04-15T08:04:50;15.57;;;9.63;;
69008;SDS011;56065;52.472;13.380;2023-04-15T08:07:16;18.17;;;11.82;;
69008;SDS011;56065;52.472;13.380;2023-04-15T08:09:42;15.48;;;9.50;;
69008;SDS011;56065;52.472;13.380;2023-04-15T08:12:07;15.63;;;9.50;;
69008;SDS011;56065;52.472;13.380;2023-04-15T08:14:36;16.70;;;9.35;;
69008;SDS011;56065;52.472;13.380;2023-04-15T08:17:01;19.37;;;9.97;;
69008;SDS011;56065;52.472;13.380;2023-04-15T08:19:28;16.77;;;9.68;;
69008;SDS011;56065;52.472;13.380;2023-04-15T08:21:53;15.27;;;9.63;;
69008;SDS011;56065;52.472;13.380;2023-04-15T08:24:19;14.93;;;9.10;;
69008;SDS011;56065;52.472;13.380;2023-04-15T08:26:45;18.43;;;9.53;;
69008;SDS011;56065;52.472;13.380;2023-04-15T08:29:11;14.85;;;9.00;;
69008;SDS011;56065;52.472;13.380;2023-04-15T08:31:36;13.83;;;8.53;;
69008;SDS011;56065;52.472;13.380;2023-04-15T08:34:02;16.77;;;9.47;;
69008;SDS011;56065;52.472;13.380;2023-04-15T08:36:27;15.10;;;9.57;;
69008;SDS011;56065;52.472;13.380;2023-04-15T08:38:53;19.20;;;9.70;;
69008;SDS011;56065;52.472;13.380;2023-04-15T08:41:22;17.50;;;10.93;;
69008;SDS011;56065;52.472;13.380;2023-04-15T08:46:18;16.13;;;10.23;;
69008;SDS011;56065;52.472;13.380;2023-04-15T08:48:43;14.43;;;9.17;;
69008;SDS011;56065;52.472;13.380;2023-04-15T08:51:11;15.77;;;9.50;;
69008;SDS011;56065;52.472;13.380;2023-04-15T08:53:40;79.13;;;35.72;;
69008;SDS011;56065;52.472;13.380;2023-04-15T08:56:07;72.28;;;31.02;;
69008;SDS011;56065;52.472;13.380;2023-04-15T08:58:34;61.13;;;27.55;;
69008;SDS011;56065;52.472;13.380;2023-04-15T09:01:00;20.25;;;11.52;;
69008;SDS011;56065;52.472;13.380;2023-04-15T09:03:27;22.87;;;13.23;;
69008;SDS011;56065;52.472;13.380;2023-04-15T09:05:52;37.10;;;18.02;;
69008;SDS011;56065;52.472;13.380;2023-04-15T09:08:18;28.37;;;15.93;;
69008;SDS011;56065;52.472;13.380;2023-04-15T09:10:44;22.98;;;12.50;;
69008;SDS011;56065;52.472;13.380;2023-04-15T09:13:09;20.80;;;12.27;;
69008;SDS011;56065;52.472;13.380;2023-04-15T09:15:37;18.38;;;10.43;;
69008;SDS011;56065;52.472;13.380;2023-04-15T09:18:02;25.87;;;13.20;;
69008;SDS011;56065;52.472;13.380;2023-04-15T09:20:28;23.42;;;12.55;;
69008;SDS011;56065;52.472;13.380;2023-04-15T09:22:54;20.07;;;10.87;;
69008;SDS011;56065;52.472;13.380;2023-04-15T09:27:53;18.37;;;10.40;;
69008;SDS011;56065;52.472;13.380;2023-04-15T09:30:23;17.10;;;10.38;;
69008;SDS011;56065;52.472;13.380;2023-04-15T09:35:32;17.05;;;10.02;;
69008;SDS011;56065;52.472;13.380;2023-04-15T09:38:04;16.42;;;10.20;;
69008;SDS011;56065;52.472;13.380;2023-04-15T09:42:57;16.63;;;10.15;;
69008;SDS011;56065;52.472;13.380;2023-04-15T09:45:23;15.85;;;9.70;;
69008;SDS011;56065;52.472;13.380;2023-04-15T09:47:49;15.87;;;10.23;;
69008;SDS011;56065;52.472;13.380;2023-04-15T09:50:17;15.13;;;9.63;;
69008;SDS011;56065;52.472;13.380;2023-04-15T09:52:43;15.68;;;10.15;;
69008;SDS011;56065;52.472;13.380;2023-04-15T09:55:09;14.97;;;9.60;;
69008;SDS011;56065;52.472;13.380;2023-04-15T09:57:35;16.50;;;10.02;;
69008;SDS011;56065;52.472;13.380;2023-04-15T10:00:02;14.68;;;9.60;;
69008;SDS011;56065;52.472;13.380;2023-04-15T10:02:29;16.42;;;9.88;;
69008;SDS011;56065;52.472;13.380;2023-04-15T10:04:55;15.17;;;9.93;;
69008;SDS011;56065;52.472;13.380;2023-04-15T10:07:21;15.05;;;10.13;;
69008;SDS011;56065;52.472;13.380;2023-04-15T10:09:47;15.38;;;9.23;;
69008;SDS011;56065;52.472;13.380;2023-04-15T10:12:14;15.30;;;9.35;;
69008;SDS011;56065;52.472;13.380;2023-04-15T10:14:41;18.43;;;11.10;;
69008;SDS011;56065;52.472;13.380;2023-04-15T10:17:09;16.67;;;10.82;;
69008;SDS011;56065;52.472;13.380;2023-04-15T10:19:36;21.50;;;11.43;;
69008;SDS011;56065;52.472;13.380;2023-04-15T10:22:02;15.30;;;9.65;;
69008;SDS011;56065;52.472;13.380;2023-04-15T10:24:30;18.03;;;10.03;;
69008;SDS011;56065;52.472;13.380;2023-04-15T10:26:56;18.93;;;10.33;;
69008;SDS011;56065;52.472;13.380;2023-04-15T10:29:22;15.07;;;9.48;;
69008;SDS011;56065;52.472;13.380;2023-04-15T10:31:50;16.00;;;10.05;;
69008;SDS011;56065;52.472;13.380;2023-04-15T10:34:16;14.53;;;9.43;;
69008;SDS011;56065;52.472;13.380;2023-04-15T10:36:42;14.60;;;8.73;;
69008;SDS011;56065;52.472;13.380;2023-04-15T10:42:14;15.93;;;9.50;;
69008;SDS011;56065;52.472;13.380;2023-04-15T10:44:41;12.95;;;8.32;;
69008;SDS011;56065;52.472;13.380;2023-04-15T10:47:09;14.63;;;9.63;;
69008;SDS011;56065;52.472;13.380;2023-04-15T10:49:58;14.02;;;8.30;;
69008;SDS011;56065;52.472;13.380;2023-04-15T10:52:24;14.23;;;8.73;;
69008;SDS011;56065;52.472;13.380;2023-04-15T10:55:52;13.52;;;8.32;;
69008;SDS011;56065;52.472;13.380;2023-04-15T10:57:46;12.32;;;8.18;;
69008;SDS011;56065;52.472;13.380;2023-04-15T11:00:17;13.40;;;8.55;;
69008;SDS011;56065;52.472;13.380;2023-04-15T11:02:53;13.43;;;7.88;;
69008;SDS011;56065;52.472;13.380;2023-04-15T11:08:03;12.50;;;7.88;;
69008;SDS011;56065;52.472;13.380;2023-04-15T11:13:04;11.30;;;7.47;;
69008;SDS011;56065;52.472;13.380;2023-04-15T11:15:41;12.77;;;8.48;;
69008;SDS011;56065;52.472;13.380;2023-04-15T11:18:12;12.88;;;8.20;;
69008;SDS011;56065;52.472;13.380;2023-04-15T11:20:39;13.45;;;8.48;;
69008;SDS011;56065;52.472;13.380;2023-04-15T11:23:07;12.80;;;8.67;;
69008;SDS011;56065;52.472;13.380;2023-04-15T11:25:33;11.80;;;7.60;;
69008;SDS011;56065;52.472;13.380;2023-04-15T11:28:00;12.13;;;7.68;;
69008;SDS011;56065;52.472;13.380;2023-04-15T11:30:27;13.32;;;8.73;;
69008;SDS011;56065;52.472;13.380;2023-04-15T11:32:55;11.27;;;7.28;;
69008;SDS011;56065;52.472;13.380;2023-04-15T11:35:22;13.47;;;8.50;;
69008;SDS011;56065;52.472;13.380;2023-04-15T11:37:48;13.13;;;7.72;;
69008;SDS011;56065;52.472;13.380;2023-04-15T11:40:15;13.25;;;8.20;;
69008;SDS011;56065;52.472;13.380;2023-04-15T11:42:42;12.27;;;8.10;;
69008;SDS011;56065;52.472;13.380;2023-04-15T11:45:12;12.30;;;7.93;;
69008;SDS011;56065;52.472;13.380;2023-04-15T11:47:39;12.30;;;7.60;;
69008;SDS011;56065;52.472;13.380;2023-04-15T11:50:18;13.65;;;7.88;;
69008;SDS011;56065;52.472;13.380;2023-04-15T11:52:55;12.75;;;7.70;;
69008;SDS011;56065;52.472;13.380;2023-04-15T11:55:21;13.20;;;7.73;;
69008;SDS011;56065;52.472;13.380;2023-04-15T11:58:04;12.60;;;7.75;;
69008;SDS011;56065;52.472;13.380;2023-04-15T12:00:39;13.43;;;7.50;;
69008;SDS011;56065;52.472;13.380;2023-04-15T12:03:18;11.50;;;7.13;;
69008;SDS011;56065;52.472;13.380;2023-04-15T12:08:46;11.93;;;7.38;;
69008;SDS011;56065;52.472;13.380;2023-04-15T12:14:33;13.73;;;7.50;;
69008;SDS011;56065;52.472;13.380;2023-04-15T12:16:46;11.57;;;7.00;;
69008;SDS011;56065;52.472;13.380;2023-04-15T12:21:52;12.23;;;6.93;;
69008;SDS011;56065;52.472;13.380;2023-04-15T12:24:31;11.30;;;6.78;;
69008;SDS011;56065;52.472;13.380;2023-04-15T12:27:00;12.10;;;7.57;;
69008;SDS011;56065;52.472;13.380;2023-04-15T12:29:34;10.90;;;6.70;;
69008;SDS011;56065;52.472;13.380;2023-04-15T12:32:04;13.67;;;7.83;;
69008;SDS011;56065;52.472;13.380;2023-04-15T12:34:32;12.27;;;7.55;;
69008;SDS011;56065;52.472;13.380;2023-04-15T12:37:00;11.63;;;7.05;;
69008;SDS011;56065;52.472;13.380;2023-04-15T12:39:28;11.27;;;7.00;;
69008;SDS011;56065;52.472;13.380;2023-04-15T12:41:55;11.68;;;6.40;;
69008;SDS011;56065;52.472;13.380;2023-04-15T12:44:23;11.53;;;6.47;;
69008;SDS011;56065;52.472;13.380;2023-04-15T12:46:49;12.77;;;7.38;;
69008;SDS011;56065;52.472;13.380;2023-04-15T12:49:16;13.25;;;7.32;;
69008;SDS011;56065;52.472;13.380;2023-04-15T12:51:44;10.00;;;6.33;;
69008;SDS011;56065;52.472;13.380;2023-04-15T12:54:10;11.75;;;7.15;;
69008;SDS011;56065;52.472;13.380;2023-04-15T12:56:36;10.73;;;6.07;;
69008;SDS011;56065;52.472;13.380;2023-04-15T12:59:01;10.33;;;6.53;;
69008;SDS011;56065;52.472;13.380;2023-04-15T13:01:27;12.23;;;6.75;;
69008;SDS011;56065;52.472;13.380;2023-04-15T13:03:52;10.93;;;6.70;;
69008;SDS011;56065;52.472;13.380;2023-04-15T13:06:18;11.20;;;6.90;;
69008;SDS011;56065;52.472;13.380;2023-04-15T13:08:43;10.20;;;5.93;;
69008;SDS011;56065;52.472;13.380;2023-04-15T13:11:09;10.20;;;6.50;;
69008;SDS011;56065;52.472;13.380;2023-04-15T13:13:34;10.13;;;5.93;;
69008;SDS011;56065;52.472;13.380;2023-04-15T13:15:59;10.33;;;5.63;;
69008;SDS011;56065;52.472;13.380;2023-04-15T13:18:25;12.13;;;6.30;;
69008;SDS011;56065;52.472;13.380;2023-04-15T13:20:50;10.53;;;5.87;;
69008;SDS011;56065;52.472;13.380;2023-04-15T13:23:16;10.23;;;5.67;;
69008;SDS011;56065;52.472;13.380;2023-04-15T13:25:41;9.70;;;5.40;;
69008;SDS011;56065;52.472;13.380;2023-04-15T13:28:07;8.82;;;5.43;;
69008;SDS011;56065;52.472;13.380;2023-04-15T13:30:32;10.77;;;6.00;;
69008;SDS011;56065;52.472;13.380;2023-04-15T13:32:58;11.40;;;6.73;;
69008;SDS011;56065;52.472;13.380;2023-04-15T13:35:23;10.63;;;5.88;;
69008;SDS011;56065;52.472;13.380;2023-04-15T13:37:48;11.73;;;6.30;;
69008;SDS011;56065;52.472;13.380;2023-04-15T13:40:14;10.33;;;6.03;;
69008;SDS011;56065;52.472;13.380;2023-04-15T13:42:40;11.10;;;5.90;;
69008;SDS011;56065;52.472;13.380;2023-04-15T13:45:06;11.77;;;6.43;;
69008;SDS011;56065;52.472;13.380;2023-04-15T13:47:32;11.05;;;5.88;;
69008;SDS011;56065;52.472;13.380;2023-04-15T13:49:57;10.47;;;5.70;;
69008;SDS011;56065;52.472;13.380;2023-04-15T13:52:23;9.87;;;5.63;;
69008;SDS011;56065;52.472;13.380;2023-04-15T13:54:48;10.07;;;5.63;;
69008;SDS011;56065;52.472;13.380;2023-04-15T13:57:14;9.03;;;5.20;;
69008;SDS011;56065;52.472;13.380;2023-04-15T13:59:39;9.43;;;5.70;;
69008;SDS011;56065;52.472;13.380;2023-04-15T14:02:05;8.02;;;4.63;;
69008;SDS011;56065;52.472;13.380;2023-04-15T14:04:30;8.87;;;5.00;;
69008;SDS011;56065;52.472;13.380;2023-04-15T14:06:56;8.10;;;4.53;;
69008;SDS011;56065;52.472;13.380;2023-04-15T14:09:21;8.53;;;4.63;;
69008;SDS011;56065;52.472;13.380;2023-04-15T14:11:48;10.32;;;5.57;;
69008;SDS011;56065;52.472;13.380;2023-04-15T14:14:16;10.65;;;5.70;;
69008;SDS011;56065;52.472;13.380;2023-04-15T14:16:41;10.83;;;5.30;;
69008;SDS011;56065;52.472;13.380;2023-04-15T14:19:07;9.07;;;5.25;;
69008;SDS011;56065;52.472;13.380;2023-04-15T14:21:32;9.97;;;5.40;;
69008;SDS011;56065;52.472;13.380;2023-04-15T14:23:58;11.27;;;5.60;;
69008;SDS011;56065;52.472;13.380;2023-04-15T14:26:23;8.98;;;4.93;;
69008;SDS011;56065;52.472;13.380;2023-04-15T14:28:49;9.27;;;5.30;;
69008;SDS011;56065;52.472;13.380;2023-04-15T14:31:15;9.10;;;4.73;;
69008;SDS011;56065;52.472;13.380;2023-04-15T14:33:40;9.32;;;5.18;;
69008;SDS011;56065;52.472;13.380;2023-04-15T14:36:06;8.80;;;5.20;;
69008;SDS011;56065;52.472;13.380;2023-04-15T14:38:33;9.57;;;4.95;;